CWAE

Whistler Airport

British Columbia, Canada

CWAE 190100Z 18003KT 15SM FEW021 SCT055 BKN090 17/12 A3011 RMK SC1SC2AC4 WND ESTD/LAST OB/NEXT 191300 UTC SLP193 DENSITY ALT 2700FT

Observed Flight Rules
Aug-19 @ 01:00 UTC (8 hours ago)
 
Visual Flight Rules
Wind Visibility Clouds
180° at 3 knots 15 miles
  • Few at 2,100' AGL
  • Scattered at 5,500' AGL
  • Broken at 9,000' AGL
Temperatures Readings
Current 17°C / 63°F
Dewpoint 12°C / 54°F
Humidity 73%
Altimeter 30.11" Hg
Pressure 1019.3 hPa
Elevation 658
Observed Flight Rules
Aug-19 @ 01:00 UTC
(8 hours ago)
 
VFR
Wind Visibility
180° at 3 knots 15 miles
Clouds
  • Few at 2,100' AGL
  • Scattered at 5,500' AGL
  • Broken at 9,000' AGL
Temperature Dewpoint
17°C / 63°F 12°C / 54°F
Humidity Altimeter Pressure
73% 30.11" Hg 1019.3 hPa